createdAt,value
2022-10-19T00:01:02.205Z,17.96
2022-10-19T00:03:29.626Z,18.10
2022-10-19T00:05:56.935Z,17.89
2022-10-19T00:08:24.177Z,17.92
2022-10-19T00:10:51.391Z,18.06
2022-10-19T00:13:18.936Z,18.04
2022-10-19T00:15:48.155Z,18.07
2022-10-19T00:18:15.364Z,17.96
2022-10-19T00:20:42.663Z,18.07
2022-10-19T00:23:10.022Z,18.06
2022-10-19T00:25:38.466Z,18.08
2022-10-19T00:28:05.754Z,18.03
2022-10-19T00:30:37.145Z,17.87
2022-10-19T00:33:04.837Z,17.91
2022-10-19T00:35:32.015Z,17.93
2022-10-19T00:37:59.238Z,17.81
2022-10-19T00:40:26.556Z,17.88
2022-10-19T00:42:57.080Z,17.79
2022-10-19T00:45:24.350Z,17.67
2022-10-19T00:48:02.854Z,17.80
2022-10-19T00:50:30.095Z,17.78
2022-10-19T00:52:57.445Z,17.76
2022-10-19T00:55:25.007Z,17.63
2022-10-19T00:57:52.416Z,17.65
2022-10-19T01:00:19.810Z,17.52
2022-10-19T01:02:47.532Z,17.50
2022-10-19T01:05:15.329Z,17.54
2022-10-19T01:07:42.879Z,17.53
2022-10-19T01:10:10.342Z,17.61
2022-10-19T01:12:52.269Z,17.59
2022-10-19T01:15:22.913Z,17.72
2022-10-19T01:18:09.413Z,17.70
2022-10-19T01:20:36.852Z,17.41
2022-10-19T01:23:32.005Z,17.47
2022-10-19T01:25:59.146Z,17.46
2022-10-19T01:28:54.186Z,17.45
2022-10-19T01:31:30.343Z,17.30
2022-10-19T01:34:05.748Z,17.47
2022-10-19T01:36:39.163Z,17.39
2022-10-19T01:39:06.394Z,17.35
2022-10-19T01:41:39.266Z,17.33
2022-10-19T01:44:19.503Z,17.41
2022-10-19T01:46:51.110Z,17.48
2022-10-19T01:49:34.306Z,17.50
2022-10-19T01:52:04.895Z,17.50
2022-10-19T01:54:36.898Z,17.47
2022-10-19T01:57:06.672Z,17.44
2022-10-19T01:59:34.639Z,17.44
2022-10-19T02:02:03.104Z,17.44
2022-10-19T02:04:31.191Z,17.43
2022-10-19T02:06:58.914Z,17.39
2022-10-19T02:09:26.278Z,17.40
2022-10-19T02:11:57.373Z,17.48
2022-10-19T02:14:32.871Z,17.47
2022-10-19T02:17:03.918Z,17.52
2022-10-19T02:19:31.223Z,17.49
2022-10-19T02:21:58.730Z,17.46
2022-10-19T02:24:25.979Z,17.47
2022-10-19T02:26:53.775Z,17.56
2022-10-19T02:29:21.192Z,17.49
2022-10-19T02:31:48.792Z,17.32
2022-10-19T02:34:16.096Z,17.40
2022-10-19T02:36:43.375Z,17.37
2022-10-19T02:39:10.701Z,17.40
2022-10-19T02:42:12.139Z,17.45
2022-10-19T02:45:02.837Z,17.32
2022-10-19T02:47:43.369Z,17.34
2022-10-19T02:50:11.725Z,17.45
2022-10-19T02:52:40.366Z,17.47
2022-10-19T02:55:08.549Z,17.55
2022-10-19T02:57:36.425Z,17.51
2022-10-19T03:00:06.198Z,17.46
2022-10-19T03:02:33.482Z,17.26
2022-10-19T03:05:00.784Z,17.37
2022-10-19T03:07:28.004Z,17.44
2022-10-19T03:09:55.298Z,17.45
2022-10-19T03:12:22.846Z,17.45
2022-10-19T03:14:50.060Z,17.52
2022-10-19T03:17:17.311Z,17.53
2022-10-19T03:19:45.524Z,17.36
2022-10-19T03:22:14.136Z,17.30
2022-10-19T03:24:41.349Z,17.38
2022-10-19T03:27:08.598Z,17.22
2022-10-19T03:29:35.842Z,17.11
2022-10-19T03:32:03.074Z,17.07
2022-10-19T03:34:30.271Z,17.15
2022-10-19T03:36:59.246Z,17.17
2022-10-19T03:39:26.689Z,17.30
2022-10-19T03:41:53.851Z,17.33
2022-10-19T03:44:21.099Z,17.32
2022-10-19T03:46:48.369Z,17.19
2022-10-19T03:49:16.008Z,17.20
2022-10-19T03:51:43.675Z,17.07
2022-10-19T03:54:15.927Z,17.00
2022-10-19T03:56:43.347Z,17.13
2022-10-19T03:59:13.329Z,17.23
2022-10-19T04:01:43.120Z,17.24
2022-10-19T04:04:17.089Z,17.15
2022-10-19T04:06:46.176Z,17.10
2022-10-19T04:09:18.533Z,17.24
2022-10-19T04:11:56.631Z,17.16
2022-10-19T04:14:32.260Z,17.07
2022-10-19T04:17:03.201Z,17.13
2022-10-19T04:19:31.239Z,17.03
2022-10-19T04:21:58.939Z,17.04
2022-10-19T04:24:26.455Z,17.04
2022-10-19T04:26:55.480Z,17.17
2022-10-19T04:29:27.947Z,17.15
2022-10-19T04:31:57.285Z,17.19
2022-10-19T04:34:24.575Z,17.13
2022-10-19T04:36:53.154Z,17.06
2022-10-19T04:39:20.290Z,17.04
2022-10-19T04:41:47.454Z,17.02
2022-10-19T04:44:15.479Z,16.91
2022-10-19T04:46:42.803Z,16.85
2022-10-19T04:49:09.977Z,16.79
2022-10-19T04:51:37.250Z,16.86
2022-10-19T04:54:04.700Z,16.97
2022-10-19T04:56:32.457Z,16.99
2022-10-19T04:59:00.503Z,16.89
2022-10-19T05:01:29.508Z,16.76
2022-10-19T05:03:58.798Z,16.73
2022-10-19T05:06:26.485Z,16.68
2022-10-19T05:08:53.768Z,16.63
2022-10-19T05:11:21.300Z,16.75
2022-10-19T05:13:48.861Z,16.50
2022-10-19T05:16:18.216Z,16.66
2022-10-19T05:18:50.188Z,16.68
2022-10-19T05:21:18.533Z,16.86
2022-10-19T05:23:45.805Z,17.11
2022-10-19T05:26:18.724Z,17.13
2022-10-19T05:28:50.108Z,16.99
2022-10-19T05:31:19.260Z,16.87
2022-10-19T05:33:46.979Z,16.95
2022-10-19T05:36:19.936Z,16.94
2022-10-19T05:38:49.384Z,16.96
2022-10-19T05:41:17.671Z,16.72
2022-10-19T05:43:45.656Z,16.66
2022-10-19T05:46:15.421Z,16.77
2022-10-19T05:48:42.761Z,16.99
2022-10-19T05:51:12.225Z,16.93
2022-10-19T05:53:39.977Z,17.13
2022-10-19T05:56:08.985Z,17.11
2022-10-19T05:58:36.511Z,17.15
2022-10-19T06:01:03.962Z,17.04
2022-10-19T06:03:31.579Z,17.14
2022-10-19T06:05:58.948Z,17.00
2022-10-19T06:08:26.251Z,17.19
2022-10-19T06:10:53.537Z,17.25
2022-10-19T06:13:20.903Z,17.26
2022-10-19T06:15:50.803Z,17.05
2022-10-19T06:18:18.003Z,16.95
2022-10-19T06:20:45.534Z,17.12
2022-10-19T06:23:12.831Z,16.93
2022-10-19T06:25:40.844Z,16.91
2022-10-19T06:28:08.097Z,16.85
2022-10-19T06:30:39.652Z,16.98
2022-10-19T06:33:07.517Z,17.04
2022-10-19T06:35:35.440Z,17.05
2022-10-19T06:38:02.808Z,17.11
2022-10-19T06:40:30.219Z,17.07
2022-10-19T06:42:58.605Z,17.06
2022-10-19T06:45:26.009Z,17.06
2022-10-19T06:47:53.410Z,17.04
2022-10-19T06:50:20.814Z,16.94
2022-10-19T06:52:48.141Z,17.17
2022-10-19T06:55:17.097Z,17.36
2022-10-19T06:57:45.280Z,17.08
2022-10-19T07:00:13.400Z,16.97
2022-10-19T07:02:40.727Z,17.02
2022-10-19T07:05:08.131Z,17.01
2022-10-19T07:07:36.576Z,16.92
2022-10-19T07:10:04.528Z,16.91
2022-10-19T07:12:32.055Z,16.92
2022-10-19T07:14:59.311Z,17.14
2022-10-19T07:17:26.677Z,17.08
2022-10-19T07:19:55.051Z,16.92
2022-10-19T07:22:27.835Z,16.95
2022-10-19T07:24:55.503Z,16.96
2022-10-19T07:27:22.755Z,17.05
2022-10-19T07:29:50.057Z,17.06
2022-10-19T07:32:17.275Z,17.02
2022-10-19T07:34:44.718Z,17.04
2022-10-19T07:37:11.886Z,17.06
2022-10-19T07:39:39.119Z,17.28
2022-10-19T07:42:06.491Z,17.43
2022-10-19T07:44:33.870Z,17.47
2022-10-19T07:47:01.153Z,17.39
2022-10-19T07:49:28.483Z,17.42
2022-10-19T07:51:56.372Z,17.35
2022-10-19T07:54:24.589Z,17.25
2022-10-19T07:56:51.958Z,17.45
2022-10-19T07:59:19.371Z,17.36
2022-10-19T08:01:48.687Z,17.31
2022-10-19T08:04:55.894Z,17.35
2022-10-19T08:07:04.316Z,17.40
2022-10-19T08:09:52.256Z,17.25
2022-10-19T08:12:19.840Z,17.51
2022-10-19T08:14:48.041Z,17.51
2022-10-19T08:17:17.695Z,17.61
2022-10-19T08:19:46.315Z,17.85
2022-10-19T08:22:13.715Z,17.76
2022-10-19T08:24:40.892Z,17.70
2022-10-19T08:27:08.583Z,17.55
2022-10-19T08:29:35.873Z,17.57
2022-10-19T08:32:03.071Z,17.63
2022-10-19T08:34:30.253Z,17.55
2022-10-19T08:36:57.468Z,17.64
2022-10-19T08:39:24.815Z,17.82
2022-10-19T08:42:10.917Z,17.81
2022-10-19T08:44:59.948Z,18.10
2022-10-19T08:47:38.986Z,18.03
2022-10-19T08:50:19.272Z,17.88
2022-10-19T08:52:51.964Z,17.99
2022-10-19T08:55:24.619Z,17.95
2022-10-19T08:58:20.413Z,17.85
2022-10-19T09:00:59.230Z,17.80
2022-10-19T09:03:56.115Z,18.01
2022-10-19T09:06:29.556Z,18.14
2022-10-19T09:08:57.630Z,18.05
2022-10-19T09:11:28.262Z,18.23
2022-10-19T09:14:05.382Z,18.18
2022-10-19T09:16:35.257Z,18.36
2022-10-19T09:19:05.515Z,18.11
2022-10-19T09:21:45.957Z,18.12
2022-10-19T09:24:37.827Z,18.05
2022-10-19T09:27:07.667Z,18.13
2022-10-19T09:29:42.506Z,18.31
2022-10-19T09:32:23.967Z,18.30
2022-10-19T09:34:54.481Z,18.33
2022-10-19T09:37:26.263Z,18.37
2022-10-19T09:39:55.715Z,18.50
2022-10-19T09:42:25.651Z,18.45
2022-10-19T09:44:54.455Z,18.58
2022-10-19T09:47:39.066Z,18.50
2022-10-19T09:50:09.259Z,18.57
2022-10-19T09:52:36.477Z,18.51
2022-10-19T09:55:15.065Z,18.71
2022-10-19T09:57:45.718Z,18.83
2022-10-19T10:00:21.252Z,18.89
2022-10-19T10:02:50.872Z,18.79
2022-10-19T10:05:18.770Z,18.43
2022-10-19T10:07:46.144Z,18.61
2022-10-19T10:10:37.800Z,18.67
2022-10-19T10:13:05.620Z,18.76
2022-10-19T10:15:43.243Z,18.61
2022-10-19T10:18:15.282Z,18.83
2022-10-19T10:21:00.685Z,18.67
2022-10-19T10:23:36.009Z,18.79
2022-10-19T10:26:05.175Z,18.78
2022-10-19T10:28:32.479Z,18.92
2022-10-19T10:31:01.677Z,19.05
2022-10-19T10:33:46.097Z,19.12
2022-10-19T10:36:13.778Z,19.17
2022-10-19T10:38:47.121Z,19.20
2022-10-19T10:41:20.786Z,19.21
2022-10-19T10:44:06.790Z,19.23
2022-10-19T10:46:57.746Z,19.44
2022-10-19T10:49:36.234Z,19.24
2022-10-19T10:52:17.486Z,19.19
2022-10-19T10:54:58.909Z,19.37
2022-10-19T10:57:30.750Z,19.65
2022-10-19T11:00:15.858Z,19.73
2022-10-19T11:03:04.662Z,19.71
2022-10-19T11:05:34.842Z,19.85
2022-10-19T11:08:21.266Z,19.79
2022-10-19T11:11:06.836Z,19.75
2022-10-19T11:13:49.242Z,19.86
2022-10-19T11:16:18.927Z,19.92
2022-10-19T11:18:54.775Z,19.94
2022-10-19T11:21:29.418Z,20.05
2022-10-19T11:24:19.031Z,20.21
2022-10-19T11:26:49.161Z,19.88
2022-10-19T11:29:34.653Z,19.86
2022-10-19T11:32:01.758Z,19.88
2022-10-19T11:34:38.380Z,19.83
2022-10-19T11:37:34.047Z,20.08
2022-10-19T11:40:22.139Z,19.88
2022-10-19T11:42:52.594Z,20.10
2022-10-19T11:45:42.498Z,20.27
2022-10-19T11:48:40.353Z,20.36
2022-10-19T11:51:22.327Z,20.43
2022-10-19T11:54:02.176Z,20.21
2022-10-19T11:57:02.831Z,20.02
2022-10-19T12:00:00.295Z,20.19
2022-10-19T12:03:01.458Z,20.39
2022-10-19T12:05:33.823Z,20.46
2022-10-19T12:08:23.504Z,20.46
2022-10-19T12:10:50.826Z,20.39
2022-10-19T12:13:23.583Z,20.48
2022-10-19T12:15:53.965Z,20.52
2022-10-19T12:18:30.273Z,20.62
2022-10-19T12:21:00.107Z,20.74
2022-10-19T12:23:34.877Z,20.87
2022-10-19T12:26:06.076Z,21.35
2022-10-19T12:28:36.673Z,21.32
2022-10-19T12:31:04.904Z,20.97
2022-10-19T12:33:40.970Z,20.92
2022-10-19T12:36:23.759Z,20.79
2022-10-19T12:39:08.046Z,20.86
2022-10-19T12:41:45.680Z,20.80
2022-10-19T12:44:41.550Z,20.68
2022-10-19T12:47:12.563Z,20.90
2022-10-19T12:49:56.974Z,21.09
2022-10-19T12:52:48.881Z,21.29
2022-10-19T12:55:16.071Z,21.32
2022-10-19T12:57:48.604Z,21.24
2022-10-19T13:00:27.110Z,21.06
2022-10-19T13:03:15.915Z,21.00
2022-10-19T13:05:58.421Z,21.12
2022-10-19T13:08:31.700Z,21.15
2022-10-19T13:11:15.214Z,21.33
2022-10-19T13:14:14.768Z,21.67
2022-10-19T13:17:00.271Z,21.38
2022-10-19T13:19:27.651Z,21.33
2022-10-19T13:22:01.539Z,21.38
2022-10-19T13:24:35.326Z,21.27
2022-10-19T13:27:02.703Z,21.43
2022-10-19T13:29:39.113Z,21.43
2022-10-19T13:32:39.523Z,21.65
2022-10-19T13:35:22.059Z,21.44
2022-10-19T13:38:10.219Z,21.36
2022-10-19T13:40:39.268Z,21.42
2022-10-19T13:43:20.229Z,21.31
2022-10-19T13:46:08.391Z,21.36
2022-10-19T13:49:32.490Z,21.46
2022-10-19T13:52:34.335Z,21.37
2022-10-19T13:55:24.615Z,21.14
2022-10-19T13:58:07.256Z,21.28
2022-10-19T14:01:08.085Z,21.51
2022-10-19T14:03:41.239Z,21.42
2022-10-19T14:06:33.246Z,21.51
2022-10-19T14:09:19.554Z,21.59
2022-10-19T14:11:50.243Z,21.44
2022-10-19T14:14:22.991Z,21.38
2022-10-19T14:16:59.617Z,21.32
2022-10-19T14:19:33.960Z,21.27
2022-10-19T14:22:02.871Z,21.35
2022-10-19T14:24:35.321Z,21.34
2022-10-19T14:27:04.459Z,21.39
2022-10-19T14:29:37.032Z,21.43
2022-10-19T14:32:04.558Z,21.56
2022-10-19T14:34:31.799Z,21.61
2022-10-19T14:36:59.064Z,21.69
2022-10-19T14:39:31.427Z,21.67
2022-10-19T14:42:04.784Z,21.60
2022-10-19T14:44:41.284Z,21.46
2022-10-19T14:47:27.160Z,21.66
2022-10-19T14:49:54.483Z,21.48
2022-10-19T14:52:32.969Z,21.57
2022-10-19T14:55:02.275Z,21.51
2022-10-19T14:57:33.138Z,21.47
2022-10-19T15:00:08.702Z,21.60
2022-10-19T15:02:44.369Z,21.60
2022-10-19T15:05:22.979Z,21.56
2022-10-19T15:07:50.373Z,21.56
2022-10-19T15:10:34.922Z,21.57
2022-10-19T15:13:05.226Z,21.61
2022-10-19T15:15:34.629Z,21.46
2022-10-19T15:18:01.992Z,21.39
2022-10-19T15:20:43.818Z,21.22
2022-10-19T15:23:34.949Z,21.12
2022-10-19T15:26:16.756Z,21.13
2022-10-19T15:28:45.451Z,21.17
2022-10-19T15:31:20.365Z,21.43
2022-10-19T15:33:54.582Z,21.47
2022-10-19T15:36:22.705Z,21.36
2022-10-19T15:39:17.511Z,21.18
2022-10-19T15:41:48.649Z,21.07
2022-10-19T15:44:33.259Z,21.05
2022-10-19T15:47:16.519Z,21.15
2022-10-19T15:49:44.398Z,21.13
2022-10-19T15:52:28.801Z,21.00
2022-10-19T15:54:57.815Z,21.05
2022-10-19T15:57:25.027Z,21.25
2022-10-19T15:59:52.773Z,21.21
2022-10-19T16:02:20.101Z,21.12
2022-10-19T16:04:47.372Z,21.23
2022-10-19T16:07:44.088Z,20.93
2022-10-19T16:10:17.341Z,21.03
2022-10-19T16:12:44.663Z,20.88
2022-10-19T16:15:13.175Z,20.81
2022-10-19T16:17:40.467Z,20.66
2022-10-19T16:20:10.463Z,20.66
2022-10-19T16:22:37.683Z,20.78
2022-10-19T16:25:05.354Z,20.75
2022-10-19T16:27:33.055Z,20.78
2022-10-19T16:30:00.655Z,20.96
2022-10-19T16:32:28.131Z,20.85
2022-10-19T16:34:55.408Z,21.10
2022-10-19T16:37:22.631Z,20.86
2022-10-19T16:39:49.815Z,20.57
2022-10-19T16:42:17.100Z,20.51
2022-10-19T16:44:44.359Z,20.38
2022-10-19T16:47:11.591Z,20.64
2022-10-19T16:49:38.985Z,20.76
2022-10-19T16:52:06.273Z,20.90
2022-10-19T16:54:33.589Z,20.99
2022-10-19T16:57:02.223Z,21.02
2022-10-19T16:59:30.820Z,20.81
2022-10-19T17:01:57.943Z,20.52
2022-10-19T17:04:26.113Z,20.40
2022-10-19T17:06:54.758Z,20.33
2022-10-19T17:09:41.818Z,20.17
2022-10-19T17:12:09.745Z,20.35
2022-10-19T17:14:38.961Z,20.34
2022-10-19T17:17:06.340Z,20.39
2022-10-19T17:19:33.831Z,20.45
2022-10-19T17:22:02.858Z,20.47
2022-10-19T17:24:30.978Z,20.17
2022-10-19T17:27:01.177Z,20.26
2022-10-19T17:29:28.280Z,20.30
2022-10-19T17:31:55.546Z,20.22
2022-10-19T17:34:22.889Z,20.33
2022-10-19T17:36:50.101Z,20.22
2022-10-19T17:39:25.633Z,20.30
2022-10-19T17:41:57.559Z,20.23
2022-10-19T17:44:24.881Z,20.28
2022-10-19T17:46:52.071Z,20.08
2022-10-19T17:49:19.253Z,20.20
2022-10-19T17:51:46.401Z,20.14
2022-10-19T17:54:14.431Z,20.11
2022-10-19T17:56:44.870Z,20.10
2022-10-19T17:59:12.627Z,20.12
2022-10-19T18:01:40.434Z,20.05
2022-10-19T18:04:07.771Z,20.05
2022-10-19T18:06:37.069Z,20.26
2022-10-19T18:09:06.749Z,20.16
2022-10-19T18:11:40.415Z,19.94
2022-10-19T18:14:08.928Z,20.32
2022-10-19T18:16:43.825Z,20.12
2022-10-19T18:19:12.455Z,20.05
2022-10-19T18:21:42.431Z,19.90
2022-10-19T18:24:15.277Z,19.79
2022-10-19T18:26:43.862Z,19.94
2022-10-19T18:29:13.788Z,20.06
2022-10-19T18:31:41.522Z,20.00
2022-10-19T18:34:13.660Z,19.95
2022-10-19T18:36:41.507Z,19.99
2022-10-19T18:39:10.103Z,20.04
2022-10-19T18:41:38.493Z,19.97
2022-10-19T18:44:07.273Z,19.85
2022-10-19T18:46:36.887Z,19.94
2022-10-19T18:49:06.864Z,20.05
2022-10-19T18:51:34.894Z,20.17
2022-10-19T18:54:02.367Z,20.05
2022-10-19T18:56:30.807Z,19.87
2022-10-19T18:58:58.056Z,19.89
2022-10-19T19:01:28.012Z,19.86
2022-10-19T19:03:57.900Z,19.84
2022-10-19T19:06:28.961Z,19.98
2022-10-19T19:08:57.921Z,19.99
2022-10-19T19:11:28.786Z,19.78
2022-10-19T19:14:03.854Z,19.71
2022-10-19T19:16:34.606Z,20.02
2022-10-19T19:19:02.200Z,19.85
2022-10-19T19:21:31.397Z,19.80
2022-10-19T19:24:01.037Z,19.86
2022-10-19T19:26:31.434Z,19.93
2022-10-19T19:28:59.927Z,19.75
2022-10-19T19:31:27.155Z,19.39
2022-10-19T19:33:54.520Z,19.51
2022-10-19T19:36:21.962Z,19.51
2022-10-19T19:38:51.064Z,19.36
2022-10-19T19:41:18.413Z,19.37
2022-10-19T19:43:45.986Z,19.42
2022-10-19T19:46:17.457Z,19.54
2022-10-19T19:48:46.674Z,19.42
2022-10-19T19:51:16.488Z,19.50
2022-10-19T19:53:44.228Z,19.58
2022-10-19T19:56:12.487Z,19.39
2022-10-19T19:58:41.079Z,19.31
2022-10-19T20:01:12.290Z,19.37
2022-10-19T20:03:41.755Z,19.48
2022-10-19T20:06:10.024Z,19.57
2022-10-19T20:08:37.880Z,19.50
2022-10-19T20:11:11.528Z,19.41
2022-10-19T20:13:39.383Z,19.48
2022-10-19T20:16:12.622Z,19.40
2022-10-19T20:18:41.587Z,19.37
2022-10-19T20:21:09.923Z,19.39
2022-10-19T20:23:38.504Z,19.40
2022-10-19T20:26:06.329Z,19.61
2022-10-19T20:28:34.437Z,19.53
2022-10-19T20:31:05.636Z,19.59
2022-10-19T20:33:35.075Z,19.57
2022-10-19T20:36:07.126Z,19.43
2022-10-19T20:38:36.057Z,19.52
2022-10-19T20:41:07.752Z,19.55
2022-10-19T20:43:36.340Z,19.53
2022-10-19T20:46:17.961Z,19.50
2022-10-19T20:48:45.906Z,19.58
2022-10-19T20:51:23.037Z,19.50
2022-10-19T20:53:53.208Z,19.50
2022-10-19T20:56:23.193Z,19.57
2022-10-19T20:58:58.961Z,19.57
2022-10-19T21:01:27.511Z,19.53
2022-10-19T21:03:56.883Z,19.23
2022-10-19T21:06:25.346Z,19.25
2022-10-19T21:08:52.948Z,19.18
2022-10-19T21:11:28.179Z,19.16
2022-10-19T21:13:57.349Z,19.02
2022-10-19T21:16:30.244Z,19.16
2022-10-19T21:18:57.973Z,19.15
2022-10-19T21:21:28.124Z,19.12
2022-10-19T21:23:56.312Z,19.04
2022-10-19T21:26:27.185Z,18.85
2022-10-19T21:28:54.459Z,18.74
2022-10-19T21:31:23.119Z,18.86
2022-10-19T21:33:51.055Z,18.94
2022-10-19T21:36:19.392Z,19.02
2022-10-19T21:38:47.095Z,18.88
2022-10-19T21:41:20.807Z,18.99
2022-10-19T21:43:51.084Z,18.88
2022-10-19T21:46:20.106Z,18.93
2022-10-19T21:48:47.646Z,18.89
2022-10-19T21:51:23.282Z,18.88
2022-10-19T21:53:51.003Z,18.93
2022-10-19T21:56:18.396Z,18.64
2022-10-19T21:58:46.663Z,18.69
2022-10-19T22:01:14.502Z,18.54
2022-10-19T22:03:42.033Z,18.63
2022-10-19T22:06:10.052Z,18.69
2022-10-19T22:08:38.724Z,18.71
2022-10-19T22:11:10.734Z,18.78
2022-10-19T22:13:38.042Z,18.76
2022-10-19T22:16:07.341Z,18.74
2022-10-19T22:18:34.989Z,18.59
2022-10-19T22:21:07.141Z,18.49
2022-10-19T22:23:34.338Z,18.74
2022-10-19T22:26:01.647Z,18.74
2022-10-19T22:28:28.883Z,18.77
2022-10-19T22:30:57.660Z,18.87
2022-10-19T22:33:25.575Z,18.72
2022-10-19T22:35:54.621Z,18.69
2022-10-19T22:38:22.188Z,18.65
2022-10-19T22:41:45.999Z,18.54
2022-10-19T22:44:31.938Z,18.23
2022-10-19T22:46:59.406Z,18.24
2022-10-19T22:49:26.568Z,18.28
2022-10-19T22:51:53.748Z,18.34
2022-10-19T22:54:20.909Z,18.34
2022-10-19T22:56:48.156Z,18.36
2022-10-19T22:59:15.397Z,18.33
2022-10-19T23:01:42.845Z,18.32
2022-10-19T23:04:10.085Z,18.37
2022-10-19T23:06:37.295Z,18.34
2022-10-19T23:09:04.697Z,18.28
2022-10-19T23:11:31.970Z,18.54
2022-10-19T23:13:59.304Z,18.46
2022-10-19T23:18:58.929Z,18.30
2022-10-19T23:21:35.137Z,18.26
2022-10-19T23:24:02.472Z,18.25
2022-10-19T23:26:29.937Z,18.20
2022-10-19T23:28:57.682Z,18.24
2022-10-19T23:31:26.728Z,18.27
2022-10-19T23:33:54.865Z,18.33
2022-10-19T23:36:28.183Z,18.25
2022-10-19T23:38:57.179Z,18.18
2022-10-19T23:41:24.859Z,18.29
2022-10-19T23:43:52.649Z,18.25
2022-10-19T23:46:27.974Z,18.25
2022-10-19T23:48:58.230Z,18.06
2022-10-19T23:51:28.315Z,17.91
2022-10-19T23:53:55.771Z,17.96
2022-10-19T23:56:25.937Z,18.01
2022-10-19T23:58:53.890Z,17.81
